Terminal Aerodrome Forecast
Issued by NWS

Home | Current Version | Previous Version | Text Only | Print | Product List | Glossary On
Versions: 1 2 3 4 5 6 7 8 9 10 11 12 13
000
FTPA31 PHFO 202320
TAFHMK
TAF
PHMK 202320Z 2100/2124 04017G27KT P6SM FEW025 FEW045
     FM210600 04009G15KT P6SM FEW025 FEW045
     FM211900 04016G24KT P6SM FEW025 SCT045=

USA.gov is the U.S. government's official web portal to all federal, state and local government web resources and services.